createdAt,value
2016-04-25T00:00:57.266Z,19.05
2016-04-25T00:01:54.018Z,19.07
2016-04-25T00:02:53.973Z,19.11
2016-04-25T00:03:54.116Z,19.07
2016-04-25T00:04:56.886Z,19.07
2016-04-25T00:05:56.841Z,18.97
2016-04-25T00:06:57.296Z,19.09
2016-04-25T00:07:53.721Z,19.08
2016-04-25T00:08:53.676Z,19.05
2016-04-25T00:09:59.836Z,19.12
2016-04-25T00:10:53.589Z,19.05
2016-04-25T00:11:56.576Z,19.08
2016-04-25T00:12:54.140Z,19.11
2016-04-25T00:13:56.643Z,19.09
2016-04-25T00:15:02.599Z,19.15
2016-04-25T00:15:56.368Z,19.15
2016-04-25T00:16:59.309Z,19.04
2016-04-25T00:17:59.670Z,19.11
2016-04-25T00:18:56.219Z,19.09
2016-04-25T00:19:53.188Z,19.07
2016-04-25T00:20:53.112Z,19.08
2016-04-25T00:21:53.070Z,19.08
2016-04-25T00:22:53.014Z,19.08
2016-04-25T00:23:56.285Z,19.07
2016-04-25T00:24:58.945Z,19.11
2016-04-25T00:25:56.087Z,19.16
2016-04-25T00:26:56.418Z,19.08
2016-04-25T00:27:53.981Z,19.11
2016-04-25T00:28:52.734Z,19.05
2016-04-25T00:29:55.693Z,19.05
2016-04-25T00:30:55.633Z,18.98
2016-04-25T00:31:55.604Z,19.08
2016-04-25T00:32:56.045Z,19.11
2016-04-25T00:33:55.529Z,19.05
2016-04-25T00:34:52.453Z,19.15
2016-04-25T00:35:55.425Z,19.08
2016-04-25T00:36:52.364Z,19.07
2016-04-25T00:37:55.509Z,19.09
2016-04-25T00:38:52.433Z,19.15
2016-04-25T00:39:55.514Z,19.05
2016-04-25T00:40:55.172Z,19.11
2016-04-25T00:41:52.128Z,19.05
2016-04-25T00:42:51.802Z,19.05
2016-04-25T00:43:52.041Z,19.05
2016-04-25T00:44:51.980Z,18.92
2016-04-25T00:45:52.139Z,19.08
2016-04-25T00:46:54.907Z,19.08
2016-04-25T00:47:51.817Z,19.01
2016-04-25T00:48:55.007Z,19.08
2016-04-25T00:49:51.760Z,18.96
2016-04-25T00:50:51.996Z,18.98
2016-04-25T00:51:51.640Z,19.05
2016-04-25T00:53:00.849Z,19.05
2016-04-25T00:53:58.163Z,18.98
2016-04-25T00:54:51.726Z,18.96
2016-04-25T00:55:51.463Z,18.97
2016-04-25T00:56:51.403Z,18.96
2016-04-25T00:57:51.250Z,19.07
2016-04-25T00:58:51.299Z,18.92
2016-04-25T00:59:54.334Z,18.91
2016-04-25T01:00:51.211Z,18.97
2016-04-25T01:01:54.244Z,18.98
2016-04-25T01:02:54.106Z,18.91
2016-04-25T01:03:54.079Z,18.96
2016-04-25T01:04:54.034Z,19.01
2016-04-25T01:06:00.164Z,18.98
2016-04-25T01:06:53.930Z,18.91
2016-04-25T01:07:50.886Z,18.98
2016-04-25T01:08:51.154Z,18.98
2016-04-25T01:09:59.800Z,19.01
2016-04-25T01:10:56.753Z,19.01
2016-04-25T01:11:59.696Z,18.94
2016-04-25T01:12:50.914Z,19
2016-04-25T01:13:53.902Z,18.91
2016-04-25T01:14:50.545Z,18.98
2016-04-25T01:15:50.501Z,18.97
2016-04-25T01:16:54.050Z,18.96
2016-04-25T01:17:53.257Z,18.98
2016-04-25T01:18:50.369Z,18.98
2016-04-25T01:19:56.543Z,19
2016-04-25T01:20:50.249Z,19.05
2016-04-25T01:21:50.220Z,18.94
2016-04-25T01:22:53.474Z,19.05
2016-04-25T01:23:50.132Z,18.97
2016-04-25T01:24:53.087Z,19.04
2016-04-25T01:25:50.043Z,18.98
2016-04-25T01:26:49.999Z,18.98
2016-04-25T01:27:49.940Z,18.96
2016-04-25T01:28:49.880Z,19.01
2016-04-25T01:29:52.820Z,18.92
2016-04-25T01:30:55.792Z,19.07
2016-04-25T01:31:49.748Z,19.01
2016-04-25T01:32:49.718Z,19.01
2016-04-25T01:33:52.909Z,19.04
2016-04-25T01:34:49.584Z,19.01
2016-04-25T01:35:49.570Z,19
2016-04-25T01:36:49.511Z,18.96
2016-04-25T01:37:49.467Z,18.97
2016-04-25T01:38:52.719Z,19.01
2016-04-25T01:39:52.394Z,19.01
2016-04-25T01:40:52.319Z,18.92
2016-04-25T01:41:49.275Z,18.97
2016-04-25T01:42:49.074Z,18.97
2016-04-25T01:43:49.154Z,18.97
2016-04-25T01:44:48.954Z,18.91
2016-04-25T01:45:49.363Z,19.04
2016-04-25T01:46:49.335Z,18.91
2016-04-25T01:47:54.978Z,18.96
2016-04-25T01:48:51.949Z,18.96
2016-04-25T01:49:51.889Z,18.92
2016-04-25T01:50:51.846Z,18.98
2016-04-25T01:51:48.785Z,19.04
2016-04-25T01:52:51.882Z,18.88
2016-04-25T01:53:49.088Z,18.83
2016-04-25T01:54:51.653Z,18.92
2016-04-25T01:55:52.015Z,18.94
2016-04-25T01:56:54.565Z,18.96
2016-04-25T01:57:51.504Z,19
2016-04-25T01:58:54.492Z,18.92
2016-04-25T01:59:48.416Z,18.94
2016-04-25T02:00:48.356Z,19
2016-04-25T02:01:51.829Z,18.98
2016-04-25T02:02:48.784Z,18.96
2016-04-25T02:03:51.240Z,18.94
2016-04-25T02:04:54.383Z,18.96
2016-04-25T02:05:51.151Z,18.94
2016-04-25T02:06:54.092Z,18.97
2016-04-25T02:07:48.032Z,18.94
2016-04-25T02:08:48.190Z,18.96
2016-04-25T02:09:47.943Z,18.89
2016-04-25T02:10:50.899Z,18.91
2016-04-25T02:11:50.856Z,18.86
2016-04-25T02:12:48.155Z,18.92
2016-04-25T02:13:47.750Z,18.98
2016-04-25T02:14:47.706Z,18.92
2016-04-25T02:15:47.647Z,18.97
2016-04-25T02:16:50.681Z,18.86
2016-04-25T02:17:47.886Z,18.85
2016-04-25T02:18:47.514Z,18.92
2016-04-25T02:19:47.501Z,18.98
2016-04-25T02:20:50.410Z,18.85
2016-04-25T02:21:50.383Z,18.97
2016-04-25T02:22:47.322Z,18.88
2016-04-25T02:23:47.293Z,18.97
2016-04-25T02:24:47.233Z,18.96
2016-04-25T02:25:47.173Z,18.91
2016-04-25T02:26:47.146Z,18.86
2016-04-25T02:27:47.461Z,18.92
2016-04-25T02:28:47.040Z,18.89
2016-04-25T02:29:46.982Z,18.96
2016-04-25T02:30:46.937Z,18.91
2016-04-25T02:31:47.190Z,18.92
2016-04-25T02:32:49.849Z,18.97
2016-04-25T02:33:47.008Z,18.98
2016-04-25T02:34:53.543Z,18.92
2016-04-25T02:35:46.779Z,18.86
2016-04-25T02:36:46.656Z,18.97
2016-04-25T02:37:49.628Z,18.96
2016-04-25T02:38:46.849Z,19.01
2016-04-25T02:39:46.523Z,19
2016-04-25T02:40:49.465Z,19.01
2016-04-25T02:41:49.529Z,19.01
2016-04-25T02:42:46.486Z,18.97
2016-04-25T02:43:49.613Z,18.97
2016-04-25T02:44:46.272Z,18.94
2016-04-25T02:45:46.619Z,18.96
2016-04-25T02:46:46.403Z,18.96
2016-04-25T02:47:49.452Z,18.92
2016-04-25T02:48:49.080Z,18.96
2016-04-25T02:49:55.286Z,19
2016-04-25T02:50:49.007Z,18.97
2016-04-25T02:51:46.150Z,18.89
2016-04-25T02:52:48.903Z,18.88
2016-04-25T02:53:45.843Z,18.96
2016-04-25T02:54:49.205Z,18.88
2016-04-25T02:55:46.254Z,18.85
2016-04-25T02:56:45.727Z,18.89
2016-04-25T02:57:46.260Z,18.85
2016-04-25T02:58:49.013Z,18.86
2016-04-25T02:59:48.594Z,18.97
2016-04-25T03:00:45.596Z,18.86
2016-04-25T03:01:45.505Z,18.85
2016-04-25T03:02:48.632Z,18.91
2016-04-25T03:03:45.386Z,18.96
2016-04-25T03:04:45.326Z,18.83
2016-04-25T03:05:51.297Z,18.81
2016-04-25T03:06:48.238Z,18.89
2016-04-25T03:07:48.209Z,18.88
2016-04-25T03:08:45.148Z,18.89
2016-04-25T03:09:45.323Z,18.83
2016-04-25T03:10:45.061Z,18.83
2016-04-25T03:11:45.204Z,18.81
2016-04-25T03:12:44.816Z,18.78
2016-04-25T03:13:54.694Z,18.85
2016-04-25T03:14:44.837Z,18.88
2016-04-25T03:15:44.824Z,18.91
2016-04-25T03:16:45.155Z,18.92
2016-04-25T03:17:44.751Z,18.85
2016-04-25T03:18:44.660Z,18.88
2016-04-25T03:19:47.882Z,18.71
2016-04-25T03:20:50.900Z,18.81
2016-04-25T03:21:47.543Z,18.88
2016-04-25T03:22:47.499Z,18.92
2016-04-25T03:23:44.424Z,18.85
2016-04-25T03:24:44.363Z,18.92
2016-04-25T03:25:50.351Z,18.82
2016-04-25T03:26:47.447Z,18.86
2016-04-25T03:27:47.341Z,18.81
2016-04-25T03:28:53.905Z,18.79
2016-04-25T03:29:44.143Z,18.82
2016-04-25T03:30:44.098Z,18.83
2016-04-25T03:31:47.054Z,18.85
2016-04-25T03:32:47.308Z,18.86
2016-04-25T03:33:46.950Z,18.85
2016-04-25T03:34:44.188Z,18.81
2016-04-25T03:35:46.862Z,18.78
2016-04-25T03:36:49.802Z,18.76
2016-04-25T03:37:46.759Z,18.89
2016-04-25T03:38:46.714Z,18.85
2016-04-25T03:39:46.873Z,18.85
2016-04-25T03:40:43.609Z,18.94
2016-04-25T03:41:46.878Z,18.86
2016-04-25T03:42:55.537Z,18.85
2016-04-25T03:43:43.571Z,18.86
2016-04-25T03:44:46.433Z,18.94
2016-04-25T03:45:46.436Z,19
2016-04-25T03:46:43.642Z,18.86
2016-04-25T03:47:46.301Z,18.85
2016-04-25T03:48:43.241Z,18.83
2016-04-25T03:49:43.197Z,18.88
2016-04-25T03:50:46.169Z,18.94
2016-04-25T03:51:46.092Z,18.86
2016-04-25T03:52:46.064Z,18.86
2016-04-25T03:53:43.411Z,18.82
2016-04-25T03:54:45.960Z,18.88
2016-04-25T03:55:43.103Z,18.89
2016-04-25T03:56:45.872Z,18.86
2016-04-25T03:57:42.891Z,18.85
2016-04-25T03:58:45.971Z,18.86
2016-04-25T03:59:42.926Z,18.81
2016-04-25T04:00:42.648Z,18.88
2016-04-25T04:01:45.636Z,18.86
2016-04-25T04:02:42.779Z,18.88
2016-04-25T04:03:42.734Z,18.83
2016-04-25T04:04:42.487Z,18.83
2016-04-25T04:05:45.646Z,18.92
2016-04-25T04:06:45.462Z,18.85
2016-04-25T04:07:45.370Z,18.73
2016-04-25T04:08:45.138Z,18.82
2016-04-25T04:09:45.548Z,18.85
2016-04-25T04:10:42.191Z,18.86
2016-04-25T04:11:42.146Z,18.85
2016-04-25T04:12:45.570Z,18.88
2016-04-25T04:13:45.261Z,18.76
2016-04-25T04:14:45.030Z,18.71
2016-04-25T04:15:48.689Z,18.79
2016-04-25T04:16:53.942Z,18.78
2016-04-25T04:17:42.147Z,18.85
2016-04-25T04:18:41.806Z,18.88
2016-04-25T04:19:44.762Z,18.78
2016-04-25T04:20:44.717Z,18.89
2016-04-25T04:21:44.909Z,18.91
2016-04-25T04:22:50.630Z,18.73
2016-04-25T04:23:46.211Z,18.73
2016-04-25T04:24:41.525Z,18.78
2016-04-25T04:25:42.388Z,18.73
2016-04-25T04:26:44.421Z,18.73
2016-04-25T04:27:44.237Z,18.79
2016-04-25T04:28:44.036Z,18.73
2016-04-25T04:29:44.289Z,18.73
2016-04-25T04:30:47.276Z,18.83
2016-04-25T04:31:41.185Z,18.67
2016-04-25T04:32:41.546Z,18.73
2016-04-25T04:33:41.097Z,18.64
2016-04-25T04:34:44.037Z,18.81
2016-04-25T04:35:47.446Z,18.67
2016-04-25T04:36:46.963Z,18.76
2016-04-25T04:37:43.920Z,18.68
2016-04-25T04:38:46.891Z,18.74
2016-04-25T04:39:40.831Z,18.76
2016-04-25T04:40:40.771Z,18.79
2016-04-25T04:41:40.931Z,18.82
2016-04-25T04:42:41.027Z,18.74
2016-04-25T04:43:41.061Z,18.73
2016-04-25T04:44:40.579Z,18.79
2016-04-25T04:45:40.534Z,18.74
2016-04-25T04:46:40.476Z,18.82
2016-04-25T04:47:40.447Z,18.81
2016-04-25T04:48:40.403Z,18.82
2016-04-25T04:49:40.530Z,18.76
2016-04-25T04:50:43.298Z,18.81
2016-04-25T04:51:40.254Z,18.78
2016-04-25T04:52:43.382Z,18.76
2016-04-25T04:53:40.150Z,18.73
2016-04-25T04:54:46.716Z,18.81
2016-04-25T04:55:43.358Z,18.78
2016-04-25T04:56:40.002Z,18.81
2016-04-25T04:57:39.974Z,18.85
2016-04-25T04:58:45.757Z,18.88
2016-04-25T04:59:42.900Z,18.85
2016-04-25T05:00:40.028Z,18.92
2016-04-25T05:01:39.766Z,18.88
2016-04-25T05:02:43.018Z,18.85
2016-04-25T05:03:42.677Z,18.88
2016-04-25T05:04:42.649Z,18.78
2016-04-25T05:05:48.574Z,18.74
2016-04-25T05:06:43.044Z,18.83
2016-04-25T05:07:39.469Z,18.76
2016-04-25T05:08:39.424Z,18.71
2016-04-25T05:09:39.615Z,18.71
2016-04-25T05:10:42.649Z,18.81
2016-04-25T05:11:42.902Z,18.86
2016-04-25T05:12:39.503Z,18.76
2016-04-25T05:13:42.783Z,18.67
2016-04-25T05:14:45.300Z,18.79
2016-04-25T05:15:39.252Z,18.74
2016-04-25T05:16:42.283Z,18.79
2016-04-25T05:17:39.542Z,18.81
2016-04-25T05:18:45.514Z,18.74
2016-04-25T05:19:39.204Z,18.76
2016-04-25T05:20:45.660Z,18.86
2016-04-25T05:21:45.100Z,18.74
2016-04-25T05:22:42.079Z,18.74
2016-04-25T05:23:42.244Z,18.79
2016-04-25T05:24:39.003Z,18.73
2016-04-25T05:25:38.949Z,18.76
2016-04-25T05:26:42.097Z,18.76
2016-04-25T05:27:41.930Z,18.73
2016-04-25T05:28:39.389Z,18.73
2016-04-25T05:29:38.033Z,18.79
2016-04-25T05:30:41.727Z,18.64
2016-04-25T05:31:38.684Z,18.79
2016-04-25T05:32:38.624Z,18.73
2016-04-25T05:33:38.597Z,18.73
2016-04-25T05:34:38.538Z,18.67
2016-04-25T05:35:38.495Z,18.61
2016-04-25T05:36:38.451Z,18.64
2016-04-25T05:37:41.408Z,18.67
2016-04-25T05:38:38.363Z,18.61
2016-04-25T05:39:38.320Z,18.64
2016-04-25T05:40:41.276Z,18.63
2016-04-25T05:41:38.217Z,18.78
2016-04-25T05:42:42.578Z,18.73
2016-04-25T05:43:38.145Z,18.76
2016-04-25T05:44:41.069Z,18.76
2016-04-25T05:45:38.414Z,18.79
2016-04-25T05:46:38.042Z,18.71
2016-04-25T05:47:37.920Z,18.73
2016-04-25T05:48:37.876Z,18.66
2016-04-25T05:49:37.833Z,18.78
2016-04-25T05:50:40.991Z,18.76
2016-04-25T05:51:43.962Z,18.73
2016-04-25T05:52:40.684Z,18.74
2016-04-25T05:53:37.639Z,18.68
2016-04-25T05:54:37.579Z,18.76
2016-04-25T05:55:37.552Z,18.64
2016-04-25T05:56:37.491Z,18.73
2016-04-25T05:57:43.479Z,18.78
2016-04-25T05:58:37.700Z,18.61
2016-04-25T05:59:40.374Z,18.76
2016-04-25T06:00:40.299Z,18.78
2016-04-25T06:01:40.473Z,18.76
2016-04-25T06:02:40.508Z,18.81
2016-04-25T06:03:40.229Z,18.64
2016-04-25T06:04:37.137Z,18.71
2016-04-25T06:05:37.391Z,18.74
2016-04-25T06:06:40.018Z,18.66
2016-04-25T06:07:36.959Z,18.73
2016-04-25T06:08:39.946Z,18.81
2016-04-25T06:09:36.870Z,18.78
2016-04-25T06:10:36.826Z,18.63
2016-04-25T06:11:36.781Z,18.64
2016-04-25T06:12:36.753Z,18.63
2016-04-25T06:13:37.584Z,18.71
2016-04-25T06:14:39.634Z,18.7
2016-04-25T06:15:42.620Z,18.68
2016-04-25T06:16:36.561Z,18.79
2016-04-25T06:17:39.501Z,18.81
2016-04-25T06:18:36.456Z,18.76
2016-04-25T06:19:39.413Z,18.76
2016-04-25T06:20:36.416Z,18.76
2016-04-25T06:21:36.293Z,18.83
2016-04-25T06:22:36.265Z,18.78
2016-04-25T06:23:36.206Z,18.81
2016-04-25T06:24:36.395Z,18.76
2016-04-25T06:25:36.148Z,18.81
2016-04-25T06:26:36.089Z,18.81
2016-04-25T06:27:36.029Z,18.74
2016-04-25T06:28:39.875Z,18.66
2016-04-25T06:29:48.362Z,18.64
2016-04-25T06:30:38.897Z,18.74
2016-04-25T06:31:35.867Z,18.63
2016-04-25T06:32:38.792Z,18.73
2016-04-25T06:33:38.952Z,18.64
2016-04-25T06:34:35.688Z,18.67
2016-04-25T06:35:38.645Z,18.73
2016-04-25T06:36:41.585Z,18.64
2016-04-25T06:37:35.883Z,18.66
2016-04-25T06:38:35.716Z,18.76
2016-04-25T06:39:38.498Z,18.61
2016-04-25T06:40:35.408Z,18.74
2016-04-25T06:41:35.363Z,18.71
2016-04-25T06:42:41.351Z,18.7
2016-04-25T06:43:38.478Z,18.64
2016-04-25T06:44:38.200Z,18.63
2016-04-25T06:45:44.171Z,18.7
2016-04-25T06:46:35.158Z,18.7
2016-04-25T06:47:38.082Z,18.67
2016-04-25T06:48:38.321Z,18.64
2016-04-25T06:49:37.994Z,18.67
2016-04-25T06:50:37.935Z,18.67
2016-04-25T06:51:40.906Z,18.6
2016-04-25T06:52:35.034Z,18.66
2016-04-25T06:53:44.020Z,18.66
2016-04-25T06:54:34.790Z,18.68
2016-04-25T06:55:37.698Z,18.66
2016-04-25T06:56:34.732Z,18.7
2016-04-25T06:57:37.781Z,18.61
2016-04-25T06:58:34.644Z,18.66
2016-04-25T06:59:37.506Z,18.61
2016-04-25T07:00:37.462Z,18.71
2016-04-25T07:01:37.402Z,18.66
2016-04-25T07:02:34.466Z,18.7
2016-04-25T07:03:34.313Z,18.63
2016-04-25T07:04:34.253Z,18.63
2016-04-25T07:05:34.209Z,18.71
2016-04-25T07:06:34.384Z,18.61
2016-04-25T07:07:36.308Z,18.67
2016-04-25T07:08:34.092Z,18.58
2016-04-25T07:09:34.017Z,18.82
2016-04-25T07:10:34.269Z,18.74
2016-04-25T07:11:34.054Z,18.63
2016-04-25T07:12:36.682Z,18.78
2016-04-25T07:13:33.918Z,18.7
2016-04-25T07:14:33.796Z,18.79
2016-04-25T07:15:33.752Z,18.66
2016-04-25T07:16:36.707Z,18.7
2016-04-25T07:17:37.288Z,18.68
2016-04-25T07:18:36.932Z,18.64
2016-04-25T07:19:33.607Z,18.73
2016-04-25T07:20:39.765Z,18.71
2016-04-25T07:21:36.456Z,18.64
2016-04-25T07:22:34.614Z,18.63
2016-04-25T07:23:39.398Z,18.81
2016-04-25T07:24:33.604Z,18.76
2016-04-25T07:25:33.279Z,18.74
2016-04-25T07:26:36.250Z,18.61
2016-04-25T07:27:36.440Z,18.66
2016-04-25T07:28:43.975Z,18.82
2016-04-25T07:29:32.930Z,18.66
2016-04-25T07:30:36.058Z,18.67
2016-04-25T07:31:35.998Z,18.78
2016-04-25T07:32:32.814Z,18.76
2016-04-25T07:33:35.956Z,18.63
2016-04-25T07:34:36.084Z,18.64
2016-04-25T07:35:36.025Z,18.67
2016-04-25T07:36:32.761Z,18.76
2016-04-25T07:37:33.967Z,18.67
2016-04-25T07:38:32.922Z,18.78
2016-04-25T07:39:35.817Z,18.64
2016-04-25T07:40:35.569Z,18.71
2016-04-25T07:41:32.744Z,18.66
2016-04-25T07:42:35.512Z,18.74
2016-04-25T07:43:32.671Z,18.63
2016-04-25T07:44:32.360Z,18.76
2016-04-25T07:45:32.364Z,18.76
2016-04-25T07:46:32.304Z,18.66
2016-04-25T07:47:32.276Z,18.71
2016-04-25T07:48:32.199Z,18.67
2016-04-25T07:49:32.124Z,18.64
2016-04-25T07:50:35.080Z,18.73
2016-04-25T07:51:35.457Z,18.67
2016-04-25T07:52:33.555Z,18.63
2016-04-25T07:53:31.963Z,18.66
2016-04-25T07:54:35.216Z,18.68
2016-04-25T07:55:32.282Z,18.7
2016-04-25T07:56:31.815Z,18.64
2016-04-25T07:57:32.723Z,18.7
2016-04-25T07:58:34.759Z,18.61
2016-04-25T07:59:35.245Z,18.74
2016-04-25T08:00:31.623Z,18.7
2016-04-25T08:01:31.970Z,18.63
2016-04-25T08:02:36.284Z,18.68
2016-04-25T08:03:34.678Z,18.7
2016-04-25T08:04:34.650Z,18.68
2016-04-25T08:05:31.355Z,18.63
2016-04-25T08:06:37.358Z,18.74
2016-04-25T08:07:37.298Z,18.64
2016-04-25T08:09:02.988Z,18.74
2016-04-25T08:09:31.194Z,18.64
2016-04-25T08:10:31.353Z,18.66
2016-04-25T08:11:31.497Z,18.81
2016-04-25T08:12:34.461Z,18.76
2016-04-25T08:13:33.933Z,18.76
2016-04-25T08:14:30.936Z,18.7
2016-04-25T08:15:30.891Z,18.63
2016-04-25T08:16:30.846Z,18.76
2016-04-25T08:17:30.865Z,18.63
2016-04-25T08:18:33.758Z,18.78
2016-04-25T08:19:30.777Z,18.64
2016-04-25T08:20:30.669Z,18.76
2016-04-25T08:21:30.610Z,18.71
2016-04-25T08:22:33.661Z,18.81
2016-04-25T08:23:30.757Z,18.79
2016-04-25T08:24:30.681Z,18.79
2016-04-25T08:25:30.715Z,18.73
2016-04-25T08:26:30.406Z,18.76
2016-04-25T08:27:30.330Z,18.73
2016-04-25T08:28:30.598Z,18.78
2016-04-25T08:29:31.164Z,18.76
2016-04-25T08:30:30.292Z,18.76
2016-04-25T08:31:33.560Z,18.81
2016-04-25T08:32:33.219Z,18.76
2016-04-25T08:33:30.065Z,18.74
2016-04-25T08:34:30.225Z,18.66
2016-04-25T08:35:35.992Z,18.78
2016-04-25T08:36:29.995Z,18.64
2016-04-25T08:37:32.888Z,18.67
2016-04-25T08:38:30.172Z,18.71
2016-04-25T08:39:29.988Z,18.7
2016-04-25T08:40:29.943Z,18.63
2016-04-25T08:41:29.701Z,18.63
2016-04-25T08:42:30.048Z,18.63
2016-04-25T08:43:29.596Z,18.66
2016-04-25T08:44:29.397Z,18.63
2016-04-25T08:45:32.571Z,18.64
2016-04-25T08:46:32.480Z,18.78
2016-04-25T08:47:32.670Z,18.6
2016-04-25T08:48:29.329Z,18.7
2016-04-25T08:49:29.285Z,18.63
2016-04-25T08:50:29.240Z,18.67
2016-04-25T08:51:32.290Z,18.7
2016-04-25T08:52:32.371Z,18.78
2016-04-25T08:53:29.170Z,18.66
2016-04-25T08:54:29.048Z,18.74
2016-04-25T08:55:29.036Z,18.68
2016-04-25T08:56:40.975Z,18.64
2016-04-25T08:57:41.041Z,18.73
2016-04-25T08:58:29.637Z,18.78
2016-04-25T08:59:29.359Z,18.61
2016-04-25T09:00:28.767Z,18.64
2016-04-25T09:01:29.020Z,18.76
2016-04-25T09:02:28.741Z,18.66
2016-04-25T09:03:28.666Z,18.63
2016-04-25T09:04:31.966Z,18.64
2016-04-25T09:05:28.641Z,18.67
2016-04-25T09:06:29.127Z,18.64
2016-04-25T09:07:28.583Z,18.66
2016-04-25T09:08:31.836Z,18.79
2016-04-25T09:09:28.558Z,18.74
2016-04-25T09:10:28.373Z,18.73
2016-04-25T09:11:28.438Z,18.64
2016-04-25T09:12:28.518Z,18.79
2016-04-25T09:13:30.427Z,18.64
2016-04-25T09:14:28.118Z,18.6
2016-04-25T09:15:34.401Z,18.7
2016-04-25T09:16:28.049Z,18.66
2016-04-25T09:17:30.896Z,18.7
2016-04-25T09:18:28.039Z,18.61
2016-04-25T09:19:27.885Z,18.73
2016-04-25T09:20:27.904Z,18.66
2016-04-25T09:21:28.157Z,18.63
2016-04-25T09:22:27.956Z,18.64
2016-04-25T09:23:27.833Z,18.61
2016-04-25T09:24:30.758Z,18.64
2016-04-25T09:25:27.917Z,18.67
2016-04-25T09:26:27.732Z,18.61
2016-04-25T09:27:27.610Z,18.81
2016-04-25T09:28:27.785Z,18.63
2016-04-25T09:29:31.568Z,18.63
2016-04-25T09:30:27.649Z,18.76
2016-04-25T09:31:27.308Z,18.76
2016-04-25T09:32:27.483Z,18.67
2016-04-25T09:33:27.470Z,18.74
2016-04-25T09:34:27.191Z,18.64
2016-04-25T09:35:30.600Z,18.79
2016-04-25T09:36:28.322Z,18.76
2016-04-25T09:37:27.043Z,18.73
2016-04-25T09:38:36.952Z,18.81
2016-04-25T09:39:29.939Z,18.74
2016-04-25T09:40:27.004Z,18.66
2016-04-25T09:41:32.835Z,18.66
2016-04-25T09:42:29.088Z,18.66
2016-04-25T09:43:30.028Z,18.68
2016-04-25T09:44:26.686Z,18.66
2016-04-25T09:45:26.608Z,18.73
2016-04-25T09:46:26.958Z,18.79
2016-04-25T09:47:26.661Z,18.74
2016-04-25T09:48:32.916Z,18.68
2016-04-25T09:49:32.825Z,18.66
2016-04-25T09:50:30.078Z,18.79
2016-04-25T09:51:29.643Z,18.66
2016-04-25T09:52:26.330Z,18.63
2016-04-25T09:53:29.398Z,18.63
2016-04-25T09:54:26.788Z,18.67
2016-04-25T09:55:29.201Z,18.67
2016-04-25T09:56:31.969Z,18.76
2016-04-25T09:57:29.268Z,18.67
2016-04-25T09:58:29.037Z,18.63
2016-04-25T09:59:29.087Z,18.66
2016-04-25T10:00:25.930Z,18.63
2016-04-25T10:01:29.060Z,18.64
2016-04-25T10:02:28.829Z,18.71
2016-04-25T10:03:26.188Z,18.67
2016-04-25T10:04:28.897Z,18.67
2016-04-25T10:05:25.725Z,18.64
2016-04-25T10:06:25.665Z,18.74
2016-04-25T10:07:25.621Z,18.7
2016-04-25T10:08:25.733Z,18.66
2016-04-25T10:09:25.517Z,18.6
2016-04-25T10:10:27.945Z,18.61
2016-04-25T10:11:28.478Z,18.66
2016-04-25T10:12:25.400Z,18.64
2016-04-25T10:13:28.500Z,18.68
2016-04-25T10:14:25.359Z,18.66
2016-04-25T10:15:25.237Z,18.6
2016-04-25T10:16:28.414Z,18.67
2016-04-25T10:17:25.305Z,18.66
2016-04-25T10:18:25.291Z,18.79
2016-04-25T10:19:25.060Z,18.66
2016-04-25T10:20:28.066Z,18.71
2016-04-25T10:21:28.224Z,18.73
2016-04-25T10:22:28.163Z,18.76
2016-04-25T10:23:24.898Z,18.74
2016-04-25T10:24:24.854Z,18.7
2016-04-25T10:25:27.779Z,18.66
2016-04-25T10:26:31.285Z,18.67
2016-04-25T10:27:25.019Z,18.7
2016-04-25T10:28:25.162Z,18.79
2016-04-25T10:29:28.180Z,18.7
2016-04-25T10:30:31.014Z,18.64
2016-04-25T10:31:27.536Z,18.66
2016-04-25T10:32:27.647Z,18.68
2016-04-25T10:33:27.337Z,18.66
2016-04-25T10:34:24.339Z,18.66
2016-04-25T10:35:31.199Z,18.66
2016-04-25T10:36:24.184Z,18.73
2016-04-25T10:37:24.217Z,18.61
2016-04-25T10:38:24.079Z,18.6
2016-04-25T10:39:24.348Z,18.63
2016-04-25T10:40:27.210Z,18.66
2016-04-25T10:41:23.776Z,18.61
2016-04-25T10:42:27.090Z,18.78
2016-04-25T10:43:26.842Z,18.71
2016-04-25T10:44:25.283Z,18.61
2016-04-25T10:45:23.786Z,18.7
2016-04-25T10:46:24.008Z,18.63
2016-04-25T10:47:23.697Z,18.64
2016-04-25T10:48:23.684Z,18.63
2016-04-25T10:49:27.016Z,18.7
2016-04-25T10:50:23.565Z,18.68
2016-04-25T10:51:23.489Z,18.68
2016-04-25T10:52:26.711Z,18.61
2016-04-25T10:53:23.385Z,18.64
2016-04-25T10:54:26.794Z,18.61
2016-04-25T10:55:23.296Z,18.74
2016-04-25T10:56:23.503Z,18.76
2016-04-25T10:57:26.427Z,18.81
2016-04-25T10:58:23.149Z,18.79
2016-04-25T10:59:26.135Z,18.76
2016-04-25T11:00:23.030Z,18.67
2016-04-25T11:01:29.001Z,18.63
2016-04-25T11:02:26.004Z,18.66
2016-04-25T11:03:26.178Z,18.67
2016-04-25T11:04:22.899Z,18.58
2016-04-25T11:05:22.887Z,18.71
2016-04-25T11:06:22.779Z,18.68
2016-04-25T11:07:25.751Z,18.73
2016-04-25T11:08:25.645Z,18.71
2016-04-25T11:09:22.898Z,18.67
2016-04-25T11:10:22.572Z,18.66
2016-04-25T11:11:22.512Z,18.66
2016-04-25T11:12:22.624Z,18.7
2016-04-25T11:13:22.423Z,18.68
2016-04-25T11:14:23.660Z,18.76
2016-04-25T11:15:22.539Z,18.67
2016-04-25T11:16:28.275Z,18.66
2016-04-25T11:17:22.231Z,18.76
2016-04-25T11:18:25.562Z,18.81
2016-04-25T11:19:28.159Z,18.67
2016-04-25T11:20:22.317Z,18.68
2016-04-25T11:21:22.242Z,18.66
2016-04-25T11:22:22.308Z,18.64
2016-04-25T11:23:31.172Z,18.76
2016-04-25T11:24:22.313Z,18.64
2016-04-25T11:25:21.846Z,18.66
2016-04-25T11:26:25.193Z,18.63
2016-04-25T11:27:21.852Z,18.66
2016-04-25T11:28:27.792Z,18.68
2016-04-25T11:29:27.499Z,18.66
2016-04-25T11:30:24.907Z,18.74
2016-04-25T11:31:24.988Z,18.64
2016-04-25T11:32:24.522Z,18.58
2016-04-25T11:33:27.477Z,18.7
2016-04-25T11:34:27.449Z,18.61
2016-04-25T11:35:21.373Z,18.66
2016-04-25T11:36:30.376Z,18.71
2016-04-25T11:37:21.285Z,18.74
2016-04-25T11:38:21.303Z,18.74
2016-04-25T11:39:24.196Z,18.74
2016-04-25T11:40:24.840Z,18.66
2016-04-25T11:41:24.139Z,18.66
2016-04-25T11:42:21.095Z,18.7
2016-04-25T11:43:21.520Z,18.63
2016-04-25T11:44:21.209Z,18.64
2016-04-25T11:45:20.916Z,18.66
2016-04-25T11:46:23.872Z,18.79
2016-04-25T11:47:27.145Z,18.78
2016-04-25T11:48:26.761Z,18.64
2016-04-25T11:49:21.108Z,18.64
2016-04-25T11:50:23.611Z,18.76
2016-04-25T11:51:23.630Z,18.66
2016-04-25T11:52:20.835Z,18.76
2016-04-25T11:53:20.718Z,18.68
2016-04-25T11:54:20.470Z,18.63
2016-04-25T11:55:23.442Z,18.76
2016-04-25T11:56:21.132Z,18.73
2016-04-25T11:57:23.354Z,18.79
2016-04-25T11:58:26.154Z,18.6
2016-04-25T11:59:24.281Z,18.74
2016-04-25T12:00:20.206Z,18.68
2016-04-25T12:01:20.145Z,18.74
2016-04-25T12:02:20.086Z,18.74
2016-04-25T12:03:23.073Z,18.81
2016-04-25T12:04:23.013Z,18.76
2016-04-25T12:05:22.969Z,18.67
2016-04-25T12:06:22.925Z,18.66
2016-04-25T12:07:28.895Z,18.66
2016-04-25T12:08:24.273Z,18.79
2016-04-25T12:09:19.839Z,18.64
2016-04-25T12:10:22.842Z,18.66
2016-04-25T12:11:20.094Z,18.63
2016-04-25T12:12:25.644Z,18.68
2016-04-25T12:13:19.647Z,18.64
2016-04-25T12:14:19.383Z,18.7
2016-04-25T12:15:22.558Z,18.64
2016-04-25T12:16:22.451Z,18.7
2016-04-25T12:17:20.016Z,18.67
2016-04-25T12:18:23.894Z,18.7
2016-04-25T12:19:22.475Z,18.63
2016-04-25T12:20:19.463Z,18.6
2016-04-25T12:21:19.199Z,18.67
2016-04-25T12:22:19.140Z,18.67
2016-04-25T12:23:22.236Z,18.71
2016-04-25T12:24:19.082Z,18.68
2016-04-25T12:25:33.163Z,18.64
2016-04-25T12:26:18.932Z,18.67
2016-04-25T12:27:21.918Z,18.71
2016-04-25T12:28:18.890Z,18.63
2016-04-25T12:29:18.893Z,18.64
2016-04-25T12:30:22.005Z,18.63
2016-04-25T12:31:18.710Z,18.66
2016-04-25T12:32:18.948Z,18.71
2016-04-25T12:33:21.748Z,18.57
2016-04-25T12:34:23.187Z,18.64
2016-04-25T12:35:21.971Z,18.68
2016-04-25T12:36:18.473Z,18.64
2016-04-25T12:37:18.430Z,18.64
2016-04-25T12:38:21.386Z,18.66
2016-04-25T12:39:18.403Z,18.7
2016-04-25T12:40:21.484Z,18.64
2016-04-25T12:41:18.722Z,18.7
2016-04-25T12:42:18.600Z,18.64
2016-04-25T12:43:24.539Z,18.68
2016-04-25T12:44:19.620Z,18.67
2016-04-25T12:45:28.264Z,18.66
2016-04-25T12:46:18.000Z,18.64
2016-04-25T12:47:17.973Z,18.66
2016-04-25T12:48:18.194Z,18.7
2016-04-25T12:49:24.196Z,18.76
2016-04-25T12:50:17.997Z,18.63
2016-04-25T12:51:26.780Z,18.7
2016-04-25T12:52:17.798Z,18.76
2016-04-25T12:53:20.879Z,18.66
2016-04-25T12:54:17.835Z,18.61